sensor_id;sensor_type;location;lat;lon;timestamp;temperature;humidity
21047;DHT22;10682;50.874;3.656;2023-07-31T00:00:29;17.50;99.90
21047;DHT22;10682;50.874;3.656;2023-07-31T00:02:56;17.50;99.90
21047;DHT22;10682;50.874;3.656;2023-07-31T00:05:25;17.50;99.90
21047;DHT22;10682;50.874;3.656;2023-07-31T00:07:52;17.50;99.90
21047;DHT22;10682;50.874;3.656;2023-07-31T00:10:21;17.50;99.90
21047;DHT22;10682;50.874;3.656;2023-07-31T00:12:48;17.50;99.90
21047;DHT22;10682;50.874;3.656;2023-07-31T00:15:15;17.50;99.90
21047;DHT22;10682;50.874;3.656;2023-07-31T00:17:42;17.50;99.90
21047;DHT22;10682;50.874;3.656;2023-07-31T00:20:10;17.50;99.90
21047;DHT22;10682;50.874;3.656;2023-07-31T00:22:37;17.60;99.90
21047;DHT22;10682;50.874;3.656;2023-07-31T00:25:04;17.50;99.90
21047;DHT22;10682;50.874;3.656;2023-07-31T00:27:33;17.60;99.90
21047;DHT22;10682;50.874;3.656;2023-07-31T00:30:00;17.50;99.90
21047;DHT22;10682;50.874;3.656;2023-07-31T00:32:27;17.50;99.90
21047;DHT22;10682;50.874;3.656;2023-07-31T00:34:54;17.50;99.90
21047;DHT22;10682;50.874;3.656;2023-07-31T00:37:23;17.50;99.90
21047;DHT22;10682;50.874;3.656;2023-07-31T00:39:50;17.50;99.90
21047;DHT22;10682;50.874;3.656;2023-07-31T00:42:17;17.50;99.90
21047;DHT22;10682;50.874;3.656;2023-07-31T00:44:44;17.50;99.90
21047;DHT22;10682;50.874;3.656;2023-07-31T00:47:12;17.50;99.90
21047;DHT22;10682;50.874;3.656;2023-07-31T00:49:40;17.50;99.90
21047;DHT22;10682;50.874;3.656;2023-07-31T00:52:08;17.60;99.90
21047;DHT22;10682;50.874;3.656;2023-07-31T00:54:36;17.50;99.90
21047;DHT22;10682;50.874;3.656;2023-07-31T00:57:04;17.60;99.90
21047;DHT22;10682;50.874;3.656;2023-07-31T00:59:31;17.60;99.90
21047;DHT22;10682;50.874;3.656;2023-07-31T01:01:58;17.60;99.90
21047;DHT22;10682;50.874;3.656;2023-07-31T01:04:25;17.60;99.90
21047;DHT22;10682;50.874;3.656;2023-07-31T01:07:17;17.60;99.90
21047;DHT22;10682;50.874;3.656;2023-07-31T01:09:57;17.60;99.90
21047;DHT22;10682;50.874;3.656;2023-07-31T01:12:40;17.60;99.90
21047;DHT22;10682;50.874;3.656;2023-07-31T01:15:09;17.70;99.90
21047;DHT22;10682;50.874;3.656;2023-07-31T01:17:41;17.70;99.90
21047;DHT22;10682;50.874;3.656;2023-07-31T01:20:42;17.70;99.90
21047;DHT22;10682;50.874;3.656;2023-07-31T01:23:27;17.70;99.90
21047;DHT22;10682;50.874;3.656;2023-07-31T01:26:06;17.70;99.90
21047;DHT22;10682;50.874;3.656;2023-07-31T01:28:51;17.70;99.90
21047;DHT22;10682;50.874;3.656;2023-07-31T01:31:42;17.70;99.90
21047;DHT22;10682;50.874;3.656;2023-07-31T01:34:12;17.70;99.90
21047;DHT22;10682;50.874;3.656;2023-07-31T01:36:40;17.70;99.90
21047;DHT22;10682;50.874;3.656;2023-07-31T01:39:07;17.60;99.90
21047;DHT22;10682;50.874;3.656;2023-07-31T01:41:34;17.60;99.90
21047;DHT22;10682;50.874;3.656;2023-07-31T01:44:01;17.60;99.90
21047;DHT22;10682;50.874;3.656;2023-07-31T01:46:28;17.60;99.90
21047;DHT22;10682;50.874;3.656;2023-07-31T01:48:56;17.60;99.90
21047;DHT22;10682;50.874;3.656;2023-07-31T01:51:23;17.60;99.90
21047;DHT22;10682;50.874;3.656;2023-07-31T01:53:50;17.60;99.90
21047;DHT22;10682;50.874;3.656;2023-07-31T01:56:17;17.50;99.90
21047;DHT22;10682;50.874;3.656;2023-07-31T01:58:44;17.50;99.90
21047;DHT22;10682;50.874;3.656;2023-07-31T02:01:11;17.50;99.90
21047;DHT22;10682;50.874;3.656;2023-07-31T02:03:38;17.50;99.90
21047;DHT22;10682;50.874;3.656;2023-07-31T02:06:05;17.50;99.90
21047;DHT22;10682;50.874;3.656;2023-07-31T02:08:32;17.50;99.90
21047;DHT22;10682;50.874;3.656;2023-07-31T02:11:00;17.40;99.90
21047;DHT22;10682;50.874;3.656;2023-07-31T02:13:27;17.40;99.90
21047;DHT22;10682;50.874;3.656;2023-07-31T02:15:54;17.50;99.90
21047;DHT22;10682;50.874;3.656;2023-07-31T02:18:21;17.50;99.90
21047;DHT22;10682;50.874;3.656;2023-07-31T02:20:52;17.50;99.90
21047;DHT22;10682;50.874;3.656;2023-07-31T02:23:19;17.40;99.90
21047;DHT22;10682;50.874;3.656;2023-07-31T02:25:47;17.50;99.90
21047;DHT22;10682;50.874;3.656;2023-07-31T02:28:14;17.50;99.90
21047;DHT22;10682;50.874;3.656;2023-07-31T02:30:45;17.50;99.90
21047;DHT22;10682;50.874;3.656;2023-07-31T02:33:13;17.50;99.90
21047;DHT22;10682;50.874;3.656;2023-07-31T02:35:41;17.50;99.90
21047;DHT22;10682;50.874;3.656;2023-07-31T02:38:08;17.50;99.90
21047;DHT22;10682;50.874;3.656;2023-07-31T02:40:35;17.50;99.90
21047;DHT22;10682;50.874;3.656;2023-07-31T02:43:02;17.50;99.90
21047;DHT22;10682;50.874;3.656;2023-07-31T02:45:29;17.50;99.90
21047;DHT22;10682;50.874;3.656;2023-07-31T02:47:56;17.60;99.90
21047;DHT22;10682;50.874;3.656;2023-07-31T02:50:24;17.50;99.90
21047;DHT22;10682;50.874;3.656;2023-07-31T02:52:51;17.50;99.90
21047;DHT22;10682;50.874;3.656;2023-07-31T02:55:18;17.60;99.90
21047;DHT22;10682;50.874;3.656;2023-07-31T02:57:45;17.50;99.90
21047;DHT22;10682;50.874;3.656;2023-07-31T03:00:12;17.50;99.90
21047;DHT22;10682;50.874;3.656;2023-07-31T03:02:39;17.50;99.90
21047;DHT22;10682;50.874;3.656;2023-07-31T03:05:07;17.50;99.90
21047;DHT22;10682;50.874;3.656;2023-07-31T03:07:34;17.50;99.90
21047;DHT22;10682;50.874;3.656;2023-07-31T03:10:01;17.50;99.90
21047;DHT22;10682;50.874;3.656;2023-07-31T03:12:28;17.50;99.90
21047;DHT22;10682;50.874;3.656;2023-07-31T03:14:56;17.50;99.90
21047;DHT22;10682;50.874;3.656;2023-07-31T03:17:23;17.40;99.90
21047;DHT22;10682;50.874;3.656;2023-07-31T03:19:50;17.30;99.90
21047;DHT22;10682;50.874;3.656;2023-07-31T03:22:17;17.30;99.90
21047;DHT22;10682;50.874;3.656;2023-07-31T03:24:44;17.30;99.90
21047;DHT22;10682;50.874;3.656;2023-07-31T03:27:11;17.20;99.90
21047;DHT22;10682;50.874;3.656;2023-07-31T03:29:38;17.20;99.90
21047;DHT22;10682;50.874;3.656;2023-07-31T03:32:05;17.20;99.90
21047;DHT22;10682;50.874;3.656;2023-07-31T03:34:33;17.10;99.90
21047;DHT22;10682;50.874;3.656;2023-07-31T03:37:00;17.10;99.90
21047;DHT22;10682;50.874;3.656;2023-07-31T03:39:27;17.10;99.90
21047;DHT22;10682;50.874;3.656;2023-07-31T03:41:54;17.10;99.90
21047;DHT22;10682;50.874;3.656;2023-07-31T03:44:21;17.10;99.90
21047;DHT22;10682;50.874;3.656;2023-07-31T03:46:49;17.10;99.90
21047;DHT22;10682;50.874;3.656;2023-07-31T03:49:16;17.00;99.90
21047;DHT22;10682;50.874;3.656;2023-07-31T03:51:43;17.10;99.90
21047;DHT22;10682;50.874;3.656;2023-07-31T03:54:10;17.00;99.90
21047;DHT22;10682;50.874;3.656;2023-07-31T03:56:37;17.10;99.90
21047;DHT22;10682;50.874;3.656;2023-07-31T03:59:05;17.10;99.90
21047;DHT22;10682;50.874;3.656;2023-07-31T04:01:32;17.00;99.90
21047;DHT22;10682;50.874;3.656;2023-07-31T04:03:59;17.00;99.90
21047;DHT22;10682;50.874;3.656;2023-07-31T04:06:26;17.00;99.90
21047;DHT22;10682;50.874;3.656;2023-07-31T04:08:54;17.00;99.90
21047;DHT22;10682;50.874;3.656;2023-07-31T04:11:21;17.00;99.90
21047;DHT22;10682;50.874;3.656;2023-07-31T04:13:48;17.00;99.90
21047;DHT22;10682;50.874;3.656;2023-07-31T04:16:15;17.00;99.90
21047;DHT22;10682;50.874;3.656;2023-07-31T04:18:42;17.10;99.90
21047;DHT22;10682;50.874;3.656;2023-07-31T04:21:09;17.00;99.90
21047;DHT22;10682;50.874;3.656;2023-07-31T04:23:36;17.00;99.90
21047;DHT22;10682;50.874;3.656;2023-07-31T04:26:03;17.00;99.90
21047;DHT22;10682;50.874;3.656;2023-07-31T04:28:31;17.00;99.90
21047;DHT22;10682;50.874;3.656;2023-07-31T04:30:58;17.00;99.90
21047;DHT22;10682;50.874;3.656;2023-07-31T04:33:26;17.00;99.90
21047;DHT22;10682;50.874;3.656;2023-07-31T04:35:53;17.00;99.90
21047;DHT22;10682;50.874;3.656;2023-07-31T04:38:21;17.10;99.90
21047;DHT22;10682;50.874;3.656;2023-07-31T04:40:48;17.00;99.90
21047;DHT22;10682;50.874;3.656;2023-07-31T04:43:16;17.10;99.90
21047;DHT22;10682;50.874;3.656;2023-07-31T04:45:45;17.10;99.90
21047;DHT22;10682;50.874;3.656;2023-07-31T04:48:17;17.00;99.90
21047;DHT22;10682;50.874;3.656;2023-07-31T04:50:44;17.00;99.90
21047;DHT22;10682;50.874;3.656;2023-07-31T04:53:11;17.00;99.90
21047;DHT22;10682;50.874;3.656;2023-07-31T04:55:38;16.90;99.90
21047;DHT22;10682;50.874;3.656;2023-07-31T04:58:05;16.90;99.90
21047;DHT22;10682;50.874;3.656;2023-07-31T05:00:32;16.90;99.90
21047;DHT22;10682;50.874;3.656;2023-07-31T05:02:59;16.90;99.90
21047;DHT22;10682;50.874;3.656;2023-07-31T05:05:27;16.80;99.90
21047;DHT22;10682;50.874;3.656;2023-07-31T05:07:55;16.80;99.90
21047;DHT22;10682;50.874;3.656;2023-07-31T05:10:22;16.80;99.90
21047;DHT22;10682;50.874;3.656;2023-07-31T05:12:49;16.90;99.90
21047;DHT22;10682;50.874;3.656;2023-07-31T05:15:16;16.90;99.90
21047;DHT22;10682;50.874;3.656;2023-07-31T05:17:43;16.90;99.90
21047;DHT22;10682;50.874;3.656;2023-07-31T05:20:11;16.90;99.90
21047;DHT22;10682;50.874;3.656;2023-07-31T05:22:38;16.90;99.90
21047;DHT22;10682;50.874;3.656;2023-07-31T05:25:05;16.90;99.90
21047;DHT22;10682;50.874;3.656;2023-07-31T05:27:33;16.90;99.90
21047;DHT22;10682;50.874;3.656;2023-07-31T05:30:00;17.00;99.90
21047;DHT22;10682;50.874;3.656;2023-07-31T05:32:27;17.00;99.90
21047;DHT22;10682;50.874;3.656;2023-07-31T05:34:54;17.00;99.90
21047;DHT22;10682;50.874;3.656;2023-07-31T05:37:21;17.00;99.90
21047;DHT22;10682;50.874;3.656;2023-07-31T05:39:49;17.00;99.90
21047;DHT22;10682;50.874;3.656;2023-07-31T05:42:16;17.00;99.90
21047;DHT22;10682;50.874;3.656;2023-07-31T05:44:43;17.00;99.90
21047;DHT22;10682;50.874;3.656;2023-07-31T05:47:10;17.00;99.90
21047;DHT22;10682;50.874;3.656;2023-07-31T05:49:37;17.00;99.90
21047;DHT22;10682;50.874;3.656;2023-07-31T05:52:05;17.00;99.90
21047;DHT22;10682;50.874;3.656;2023-07-31T05:54:32;17.00;99.90
21047;DHT22;10682;50.874;3.656;2023-07-31T05:57:00;17.10;99.90
21047;DHT22;10682;50.874;3.656;2023-07-31T05:59:27;17.10;99.90
21047;DHT22;10682;50.874;3.656;2023-07-31T06:01:54;17.10;99.90
21047;DHT22;10682;50.874;3.656;2023-07-31T06:04:21;17.10;99.90
21047;DHT22;10682;50.874;3.656;2023-07-31T06:06:51;17.10;99.90
21047;DHT22;10682;50.874;3.656;2023-07-31T06:09:18;17.10;99.90
21047;DHT22;10682;50.874;3.656;2023-07-31T06:11:47;17.10;99.90
21047;DHT22;10682;50.874;3.656;2023-07-31T06:14:17;17.20;99.90
21047;DHT22;10682;50.874;3.656;2023-07-31T06:16:54;17.30;99.90
21047;DHT22;10682;50.874;3.656;2023-07-31T06:19:21;17.30;99.90
21047;DHT22;10682;50.874;3.656;2023-07-31T06:21:49;17.40;99.90
21047;DHT22;10682;50.874;3.656;2023-07-31T06:24:16;17.40;99.90
21047;DHT22;10682;50.874;3.656;2023-07-31T06:26:46;17.40;99.90
21047;DHT22;10682;50.874;3.656;2023-07-31T06:29:21;17.50;99.90
21047;DHT22;10682;50.874;3.656;2023-07-31T06:31:48;17.50;99.90
21047;DHT22;10682;50.874;3.656;2023-07-31T06:34:15;17.60;99.90
21047;DHT22;10682;50.874;3.656;2023-07-31T06:36:42;17.60;99.90
21047;DHT22;10682;50.874;3.656;2023-07-31T06:39:10;17.60;99.90
21047;DHT22;10682;50.874;3.656;2023-07-31T06:41:38;17.70;99.90
21047;DHT22;10682;50.874;3.656;2023-07-31T06:44:05;17.70;99.90
21047;DHT22;10682;50.874;3.656;2023-07-31T06:46:32;17.70;99.90
21047;DHT22;10682;50.874;3.656;2023-07-31T06:48:59;17.70;99.90
21047;DHT22;10682;50.874;3.656;2023-07-31T06:51:26;17.70;99.90
21047;DHT22;10682;50.874;3.656;2023-07-31T06:53:53;17.80;99.90
21047;DHT22;10682;50.874;3.656;2023-07-31T06:56:21;17.80;99.90
21047;DHT22;10682;50.874;3.656;2023-07-31T06:58:48;17.80;99.90
21047;DHT22;10682;50.874;3.656;2023-07-31T07:01:15;17.80;99.90
21047;DHT22;10682;50.874;3.656;2023-07-31T07:03:42;17.80;99.90
21047;DHT22;10682;50.874;3.656;2023-07-31T07:06:09;17.70;99.90
21047;DHT22;10682;50.874;3.656;2023-07-31T07:08:36;17.70;99.90
21047;DHT22;10682;50.874;3.656;2023-07-31T07:11:03;17.80;99.90
21047;DHT22;10682;50.874;3.656;2023-07-31T07:13:31;17.80;99.90
21047;DHT22;10682;50.874;3.656;2023-07-31T07:15:58;17.90;99.90
21047;DHT22;10682;50.874;3.656;2023-07-31T07:18:25;18.00;99.90
21047;DHT22;10682;50.874;3.656;2023-07-31T07:20:53;18.00;99.90
21047;DHT22;10682;50.874;3.656;2023-07-31T07:23:21;18.00;99.90
21047;DHT22;10682;50.874;3.656;2023-07-31T07:25:48;18.10;99.90
21047;DHT22;10682;50.874;3.656;2023-07-31T07:28:15;18.10;99.90
21047;DHT22;10682;50.874;3.656;2023-07-31T07:30:42;18.10;99.90
21047;DHT22;10682;50.874;3.656;2023-07-31T07:33:10;18.10;99.90
21047;DHT22;10682;50.874;3.656;2023-07-31T07:35:37;18.10;99.90
21047;DHT22;10682;50.874;3.656;2023-07-31T07:38:04;18.10;99.90
21047;DHT22;10682;50.874;3.656;2023-07-31T07:40:31;18.10;99.90
21047;DHT22;10682;50.874;3.656;2023-07-31T07:42:58;18.00;99.90
21047;DHT22;10682;50.874;3.656;2023-07-31T07:45:26;17.90;99.90
21047;DHT22;10682;50.874;3.656;2023-07-31T07:47:54;17.90;99.90
21047;DHT22;10682;50.874;3.656;2023-07-31T07:50:21;18.00;99.90
21047;DHT22;10682;50.874;3.656;2023-07-31T07:52:51;18.10;99.90
21047;DHT22;10682;50.874;3.656;2023-07-31T07:55:18;18.20;99.90
21047;DHT22;10682;50.874;3.656;2023-07-31T07:57:45;18.40;99.90
21047;DHT22;10682;50.874;3.656;2023-07-31T08:00:13;18.40;99.90
21047;DHT22;10682;50.874;3.656;2023-07-31T08:02:40;18.40;99.90
21047;DHT22;10682;50.874;3.656;2023-07-31T08:05:08;18.30;99.90
21047;DHT22;10682;50.874;3.656;2023-07-31T08:07:35;18.40;99.90
21047;DHT22;10682;50.874;3.656;2023-07-31T08:10:07;18.40;99.90
21047;DHT22;10682;50.874;3.656;2023-07-31T08:12:34;18.40;99.90
21047;DHT22;10682;50.874;3.656;2023-07-31T08:15:02;18.50;99.90
21047;DHT22;10682;50.874;3.656;2023-07-31T08:17:29;18.50;99.90
21047;DHT22;10682;50.874;3.656;2023-07-31T08:19:56;18.50;99.90
21047;DHT22;10682;50.874;3.656;2023-07-31T08:22:26;18.60;99.90
21047;DHT22;10682;50.874;3.656;2023-07-31T08:24:53;18.60;99.90
21047;DHT22;10682;50.874;3.656;2023-07-31T08:27:21;18.60;99.90
21047;DHT22;10682;50.874;3.656;2023-07-31T08:29:48;18.60;99.90
21047;DHT22;10682;50.874;3.656;2023-07-31T08:32:15;18.60;99.90
21047;DHT22;10682;50.874;3.656;2023-07-31T08:34:42;18.50;99.90
21047;DHT22;10682;50.874;3.656;2023-07-31T08:37:09;18.50;99.90
21047;DHT22;10682;50.874;3.656;2023-07-31T08:39:38;18.60;99.90
21047;DHT22;10682;50.874;3.656;2023-07-31T08:42:09;18.70;99.90
21047;DHT22;10682;50.874;3.656;2023-07-31T08:44:36;18.80;99.90
21047;DHT22;10682;50.874;3.656;2023-07-31T08:47:04;18.90;99.90
21047;DHT22;10682;50.874;3.656;2023-07-31T08:49:31;19.00;99.90
21047;DHT22;10682;50.874;3.656;2023-07-31T08:51:59;19.00;99.90
21047;DHT22;10682;50.874;3.656;2023-07-31T08:54:26;19.00;99.90
21047;DHT22;10682;50.874;3.656;2023-07-31T08:56:58;18.90;99.90
21047;DHT22;10682;50.874;3.656;2023-07-31T08:59:31;18.90;99.90
21047;DHT22;10682;50.874;3.656;2023-07-31T09:02:04;18.90;99.90
21047;DHT22;10682;50.874;3.656;2023-07-31T09:04:34;18.90;99.90
21047;DHT22;10682;50.874;3.656;2023-07-31T09:07:03;18.90;99.90
21047;DHT22;10682;50.874;3.656;2023-07-31T09:09:31;18.80;99.90
21047;DHT22;10682;50.874;3.656;2023-07-31T09:11:59;18.80;99.90
21047;DHT22;10682;50.874;3.656;2023-07-31T09:14:26;18.80;99.90
21047;DHT22;10682;50.874;3.656;2023-07-31T09:16:55;18.70;99.90
21047;DHT22;10682;50.874;3.656;2023-07-31T09:19:34;18.60;99.90
21047;DHT22;10682;50.874;3.656;2023-07-31T09:22:05;18.50;99.90
21047;DHT22;10682;50.874;3.656;2023-07-31T09:24:33;18.40;99.90
21047;DHT22;10682;50.874;3.656;2023-07-31T09:27:01;18.40;99.90
21047;DHT22;10682;50.874;3.656;2023-07-31T09:29:29;18.40;99.90
21047;DHT22;10682;50.874;3.656;2023-07-31T09:31:57;18.60;99.90
21047;DHT22;10682;50.874;3.656;2023-07-31T09:34:30;18.60;99.90
21047;DHT22;10682;50.874;3.656;2023-07-31T09:37:05;18.60;99.90
21047;DHT22;10682;50.874;3.656;2023-07-31T09:39:32;18.50;99.90
21047;DHT22;10682;50.874;3.656;2023-07-31T09:42:12;18.40;99.90
21047;DHT22;10682;50.874;3.656;2023-07-31T09:44:40;18.40;99.90
21047;DHT22;10682;50.874;3.656;2023-07-31T09:47:21;18.50;99.90
21047;DHT22;10682;50.874;3.656;2023-07-31T09:49:52;18.50;99.90
21047;DHT22;10682;50.874;3.656;2023-07-31T09:52:19;18.60;99.90
21047;DHT22;10682;50.874;3.656;2023-07-31T09:54:46;18.70;99.90
21047;DHT22;10682;50.874;3.656;2023-07-31T09:57:15;18.90;99.90
21047;DHT22;10682;50.874;3.656;2023-07-31T09:59:45;19.00;99.90
21047;DHT22;10682;50.874;3.656;2023-07-31T10:02:18;19.00;99.90
21047;DHT22;10682;50.874;3.656;2023-07-31T10:04:57;19.20;99.90
21047;DHT22;10682;50.874;3.656;2023-07-31T10:07:28;19.20;99.90
21047;DHT22;10682;50.874;3.656;2023-07-31T10:10:00;19.30;99.90
21047;DHT22;10682;50.874;3.656;2023-07-31T10:12:32;19.30;99.90
21047;DHT22;10682;50.874;3.656;2023-07-31T10:15:01;19.20;99.90
21047;DHT22;10682;50.874;3.656;2023-07-31T10:17:30;19.10;99.90
21047;DHT22;10682;50.874;3.656;2023-07-31T10:19:58;19.10;99.90
21047;DHT22;10682;50.874;3.656;2023-07-31T10:22:30;19.20;99.90
21047;DHT22;10682;50.874;3.656;2023-07-31T10:24:59;19.30;99.90
21047;DHT22;10682;50.874;3.656;2023-07-31T10:27:27;19.30;99.90
21047;DHT22;10682;50.874;3.656;2023-07-31T10:29:55;19.50;99.90
21047;DHT22;10682;50.874;3.656;2023-07-31T10:32:25;19.60;99.90
21047;DHT22;10682;50.874;3.656;2023-07-31T10:34:52;19.70;99.90
21047;DHT22;10682;50.874;3.656;2023-07-31T10:37:29;19.80;99.90
21047;DHT22;10682;50.874;3.656;2023-07-31T10:42:54;19.80;99.90
21047;DHT22;10682;50.874;3.656;2023-07-31T10:45:42;19.70;99.90
21047;DHT22;10682;50.874;3.656;2023-07-31T10:48:14;19.60;99.90
21047;DHT22;10682;50.874;3.656;2023-07-31T10:53:32;19.60;99.90
21047;DHT22;10682;50.874;3.656;2023-07-31T10:56:00;19.60;99.90
21047;DHT22;10682;50.874;3.656;2023-07-31T10:58:28;19.60;99.90
21047;DHT22;10682;50.874;3.656;2023-07-31T11:00:58;19.60;99.90
21047;DHT22;10682;50.874;3.656;2023-07-31T11:03:40;19.50;99.90
21047;DHT22;10682;50.874;3.656;2023-07-31T11:06:09;19.50;99.90
21047;DHT22;10682;50.874;3.656;2023-07-31T11:08:42;19.60;99.90
21047;DHT22;10682;50.874;3.656;2023-07-31T11:11:17;19.70;99.90
21047;DHT22;10682;50.874;3.656;2023-07-31T11:13:52;19.70;99.90
21047;DHT22;10682;50.874;3.656;2023-07-31T11:16:22;19.70;99.90
21047;DHT22;10682;50.874;3.656;2023-07-31T11:18:50;19.80;99.90
21047;DHT22;10682;50.874;3.656;2023-07-31T11:21:23;19.90;99.90
21047;DHT22;10682;50.874;3.656;2023-07-31T11:23:56;20.00;99.90
21047;DHT22;10682;50.874;3.656;2023-07-31T11:26:27;20.00;99.90
21047;DHT22;10682;50.874;3.656;2023-07-31T11:28:55;20.00;99.90
21047;DHT22;10682;50.874;3.656;2023-07-31T11:31:22;20.00;99.90
21047;DHT22;10682;50.874;3.656;2023-07-31T11:33:49;20.00;99.90
21047;DHT22;10682;50.874;3.656;2023-07-31T11:36:18;20.10;99.90
21047;DHT22;10682;50.874;3.656;2023-07-31T11:38:47;20.10;99.90
21047;DHT22;10682;50.874;3.656;2023-07-31T11:41:15;20.20;99.90
21047;DHT22;10682;50.874;3.656;2023-07-31T11:43:44;20.20;99.90
21047;DHT22;10682;50.874;3.656;2023-07-31T11:46:13;20.20;99.90
21047;DHT22;10682;50.874;3.656;2023-07-31T11:48:42;20.30;99.90
21047;DHT22;10682;50.874;3.656;2023-07-31T11:51:11;20.40;99.90
21047;DHT22;10682;50.874;3.656;2023-07-31T11:56:20;20.40;99.90
21047;DHT22;10682;50.874;3.656;2023-07-31T11:58:58;20.40;99.90
21047;DHT22;10682;50.874;3.656;2023-07-31T12:01:27;20.40;99.90
21047;DHT22;10682;50.874;3.656;2023-07-31T12:03:56;20.40;99.90
21047;DHT22;10682;50.874;3.656;2023-07-31T12:06:35;20.30;99.90
21047;DHT22;10682;50.874;3.656;2023-07-31T12:09:06;20.30;99.90
21047;DHT22;10682;50.874;3.656;2023-07-31T12:11:46;20.30;99.90
21047;DHT22;10682;50.874;3.656;2023-07-31T12:14:27;20.20;99.90
21047;DHT22;10682;50.874;3.656;2023-07-31T12:17:06;20.10;99.90
21047;DHT22;10682;50.874;3.656;2023-07-31T12:19:35;20.00;99.90
21047;DHT22;10682;50.874;3.656;2023-07-31T12:22:14;19.80;99.90
21047;DHT22;10682;50.874;3.656;2023-07-31T12:24:43;19.60;99.90
21047;DHT22;10682;50.874;3.656;2023-07-31T12:27:12;19.40;99.90
21047;DHT22;10682;50.874;3.656;2023-07-31T12:29:42;19.30;99.90
21047;DHT22;10682;50.874;3.656;2023-07-31T12:32:22;19.20;99.90
21047;DHT22;10682;50.874;3.656;2023-07-31T12:34:51;19.10;99.90
21047;DHT22;10682;50.874;3.656;2023-07-31T12:37:18;19.00;99.90
21047;DHT22;10682;50.874;3.656;2023-07-31T12:39:48;18.90;99.90
21047;DHT22;10682;50.874;3.656;2023-07-31T12:42:17;18.70;99.90
21047;DHT22;10682;50.874;3.656;2023-07-31T12:44:44;18.60;99.90
21047;DHT22;10682;50.874;3.656;2023-07-31T12:47:12;18.50;99.90
21047;DHT22;10682;50.874;3.656;2023-07-31T12:49:39;18.40;99.90
21047;DHT22;10682;50.874;3.656;2023-07-31T12:52:06;18.40;99.90
21047;DHT22;10682;50.874;3.656;2023-07-31T12:54:33;18.40;99.90
21047;DHT22;10682;50.874;3.656;2023-07-31T12:57:02;18.40;99.90
21047;DHT22;10682;50.874;3.656;2023-07-31T12:59:29;18.40;99.90
21047;DHT22;10682;50.874;3.656;2023-07-31T13:01:56;18.40;99.90
21047;DHT22;10682;50.874;3.656;2023-07-31T13:04:23;18.40;99.90
21047;DHT22;10682;50.874;3.656;2023-07-31T13:06:50;18.30;99.90
21047;DHT22;10682;50.874;3.656;2023-07-31T13:09:17;18.30;99.90
21047;DHT22;10682;50.874;3.656;2023-07-31T13:11:44;18.20;99.90
21047;DHT22;10682;50.874;3.656;2023-07-31T13:14:11;18.20;99.90
21047;DHT22;10682;50.874;3.656;2023-07-31T13:16:39;18.20;99.90
21047;DHT22;10682;50.874;3.656;2023-07-31T13:19:06;18.20;99.90
21047;DHT22;10682;50.874;3.656;2023-07-31T13:21:34;18.20;99.90
21047;DHT22;10682;50.874;3.656;2023-07-31T13:24:03;18.20;99.90
21047;DHT22;10682;50.874;3.656;2023-07-31T13:26:31;18.20;99.90
21047;DHT22;10682;50.874;3.656;2023-07-31T13:28:58;18.20;99.90
21047;DHT22;10682;50.874;3.656;2023-07-31T13:31:28;18.20;99.90
21047;DHT22;10682;50.874;3.656;2023-07-31T13:33:55;18.20;99.90
21047;DHT22;10682;50.874;3.656;2023-07-31T13:36:23;18.20;99.90
21047;DHT22;10682;50.874;3.656;2023-07-31T13:38:50;18.30;99.90
21047;DHT22;10682;50.874;3.656;2023-07-31T13:41:17;18.30;99.90
21047;DHT22;10682;50.874;3.656;2023-07-31T13:43:44;18.30;99.90
21047;DHT22;10682;50.874;3.656;2023-07-31T13:46:11;18.30;99.90
21047;DHT22;10682;50.874;3.656;2023-07-31T13:48:38;18.30;99.90
21047;DHT22;10682;50.874;3.656;2023-07-31T13:51:06;18.30;99.90
21047;DHT22;10682;50.874;3.656;2023-07-31T13:53:33;18.40;99.90
21047;DHT22;10682;50.874;3.656;2023-07-31T13:56:00;18.40;99.90
21047;DHT22;10682;50.874;3.656;2023-07-31T13:58:28;18.40;99.90
21047;DHT22;10682;50.874;3.656;2023-07-31T14:01:11;18.50;99.90
21047;DHT22;10682;50.874;3.656;2023-07-31T14:03:38;18.60;99.90
21047;DHT22;10682;50.874;3.656;2023-07-31T14:06:05;18.60;99.90
21047;DHT22;10682;50.874;3.656;2023-07-31T14:08:32;18.50;99.90
21047;DHT22;10682;50.874;3.656;2023-07-31T14:11:08;18.40;99.90
21047;DHT22;10682;50.874;3.656;2023-07-31T14:13:35;18.50;99.90
21047;DHT22;10682;50.874;3.656;2023-07-31T14:16:02;18.50;99.90
21047;DHT22;10682;50.874;3.656;2023-07-31T14:18:29;18.50;99.90
21047;DHT22;10682;50.874;3.656;2023-07-31T14:20:56;18.60;99.90
21047;DHT22;10682;50.874;3.656;2023-07-31T14:23:24;18.50;99.90
21047;DHT22;10682;50.874;3.656;2023-07-31T14:25:51;18.50;99.90
21047;DHT22;10682;50.874;3.656;2023-07-31T14:28:18;18.40;99.90
21047;DHT22;10682;50.874;3.656;2023-07-31T14:30:45;18.40;99.90
21047;DHT22;10682;50.874;3.656;2023-07-31T14:33:12;18.50;99.90
21047;DHT22;10682;50.874;3.656;2023-07-31T14:35:39;18.50;99.90
21047;DHT22;10682;50.874;3.656;2023-07-31T14:38:06;18.50;99.90
21047;DHT22;10682;50.874;3.656;2023-07-31T14:40:33;18.50;99.90
21047;DHT22;10682;50.874;3.656;2023-07-31T14:43:00;18.50;99.90
21047;DHT22;10682;50.874;3.656;2023-07-31T14:45:27;18.40;99.90
21047;DHT22;10682;50.874;3.656;2023-07-31T14:47:54;18.40;99.90
21047;DHT22;10682;50.874;3.656;2023-07-31T14:50:21;18.40;99.90
21047;DHT22;10682;50.874;3.656;2023-07-31T14:52:50;18.30;99.90
21047;DHT22;10682;50.874;3.656;2023-07-31T14:55:17;18.30;99.90
21047;DHT22;10682;50.874;3.656;2023-07-31T14:57:45;18.30;99.90
21047;DHT22;10682;50.874;3.656;2023-07-31T15:00:12;18.30;99.90
21047;DHT22;10682;50.874;3.656;2023-07-31T15:02:40;18.30;99.90
21047;DHT22;10682;50.874;3.656;2023-07-31T15:05:08;18.30;99.90
21047;DHT22;10682;50.874;3.656;2023-07-31T15:07:35;18.30;99.90
21047;DHT22;10682;50.874;3.656;2023-07-31T15:10:02;18.30;99.90
21047;DHT22;10682;50.874;3.656;2023-07-31T15:12:30;18.30;99.90
21047;DHT22;10682;50.874;3.656;2023-07-31T15:14:57;18.30;99.90
21047;DHT22;10682;50.874;3.656;2023-07-31T15:17:24;18.30;99.90
21047;DHT22;10682;50.874;3.656;2023-07-31T15:19:51;18.20;99.90
21047;DHT22;10682;50.874;3.656;2023-07-31T15:22:18;18.30;99.90
21047;DHT22;10682;50.874;3.656;2023-07-31T15:24:45;18.30;99.90
21047;DHT22;10682;50.874;3.656;2023-07-31T15:27:13;18.20;99.90
21047;DHT22;10682;50.874;3.656;2023-07-31T15:29:40;18.30;99.90
21047;DHT22;10682;50.874;3.656;2023-07-31T15:32:07;18.30;99.90
21047;DHT22;10682;50.874;3.656;2023-07-31T15:34:35;18.20;99.90
21047;DHT22;10682;50.874;3.656;2023-07-31T15:37:02;18.20;99.90
21047;DHT22;10682;50.874;3.656;2023-07-31T15:39:29;18.20;99.90
21047;DHT22;10682;50.874;3.656;2023-07-31T15:41:57;18.20;99.90
21047;DHT22;10682;50.874;3.656;2023-07-31T15:44:27;18.20;99.90
21047;DHT22;10682;50.874;3.656;2023-07-31T15:47:06;18.20;99.90